Aeroporto :
LOGIN :

Iscrizione | Disclaimer

   EN    FR    IT 

 










Sommario :    VFR   VFR Marginale   IFR   IFR Intensivo   IFR Molto Intensivo
Visibilità : 
Base nubi : 
>= 8 km
>= 3000ft
5 / 8 km
1000 / 3000 ft
1500m / 5 km
500 / 1000 ft
800 / 1500m
200 / 500 ft
< 800m
< 200 ft
Simboli :   Temporali  Nebbia  Neve Forte  Precipitazioni Forti  Vento > 20 kt
SIGMETs :   Varie  Temporali  Ghiacco  Turbolenza  Onda orograficha  Ceneri Vulcaniche






- Altitudine del aeroporto : 2220 ft


LOXZ - Zeltweg AB

ULTIMO METAR :
  • 231220Z VRB01KT 50KM FEW 150AC BKN 300CI 20/11 Q1019 NOSIG

METARs OBSOLETI :
  • 231150Z VRB01KT 50KM FEW 150AC BKN 350CI 18/10 Q1020 NOSIG
  • 231120Z VRB02KT 50KM FEW 150AC BKN 350CI 17/10 Q1020 NOSIG
  • 231050Z VRB02KT 50KM FEW150AC 16/09 Q1021 NOSIG
  • 231020Z VRB01KT 50KM FEW150AC 15/09 Q1021 NOSIG
  • 230950Z 00000KT 30KM // FEW150AC 14/09 Q1022 NOSIG

TAF TAF LOXZ
Valido dal 23 a 12 ore il 23 a 21 ore UTC


231115Z 2312/2321 VRB03KT 9999 FEW300
TEMPO 2312/2318 24010KT SCT300



MetMap, La meteo Aeronautica in un colpo d'occhio ! - Copyright ORBIFLY Dicembre 2007 - Disclaimer

ORBIFLY MET'MAP TEAM :

Programmazione e sviluppo : Alexandra Zaïnal
Concezione e sviluppo : Baudouin d'Aumeries
Co-Programmazione e sviluppo : Marc-Olivier Méhu
Supporto tecnico e logistico : Manuel Goepfert
Aiuto per la traduzione : Arnaldo La Scala

Contatto : metmap@orbifly.com




FONTI E CREDITI :

   NOAA